CheckWX is a tool to help pilots better visualize weather data.  It is not intended as a substitute for an official pre-flight weather briefing.

20:09:20 UTC

OAHR TAF
Herat Airport
Afghanistan
TAF OAHR 251700Z 2518/2618 36006KT CAVOK BECMG 2519/2521 VRB02KT BECMG 2604/2606 01012KT BECMG 2607/2609 03018G30KT BECMG 2614/2616 36009KT

Jun-25@
18:00 UTC

Jun-25 @ 18:00 UTC

Jun-25@
19:00 UTC

Jun-25 @ 19:00 UTC

TAF OAHR 251700Z 2518/2618 36006KT CAVOK

Expired

Wind
  • 360° at 6 KTS
Conditions
No significant weather
Cloud Levels
  • No significant clouds

Jun-25@
19:00 UTC

Jun-25 @ 19:00 UTC

Jun-26@
04:00 UTC

Jun-26 @ 04:00 UTC

BECMG 2519/2521 VRB02KT

Becoming

Becoming Conditions expected by Tue, Jun 25, 2019 @ 21:00 UTC

Wind
  • Variable at 2 KTS
Conditions
No significant weather
Cloud Levels
  • No significant clouds

Jun-26@
04:00 UTC

Jun-26 @ 04:00 UTC

Jun-26@
07:00 UTC

Jun-26 @ 07:00 UTC

BECMG 2604/2606 01012KT

Becoming

Becoming Conditions expected by Wed, Jun 26, 2019 @ 06:00 UTC

Wind
  • 010° at 12 KTS
Conditions
No significant weather
Cloud Levels
  • No significant clouds

Jun-26@
07:00 UTC

Jun-26 @ 07:00 UTC

Jun-26@
14:00 UTC

Jun-26 @ 14:00 UTC

BECMG 2607/2609 03018G30KT

Becoming

Becoming Conditions expected by Wed, Jun 26, 2019 @ 09:00 UTC

Wind
  • 030° at 18 KTS
  • {Gusting to 30 KTS
Conditions
No significant weather
Cloud Levels
  • No significant clouds

Jun-26@
14:00 UTC

Jun-26 @ 14:00 UTC

Jun-26@
18:00 UTC

Jun-26 @ 18:00 UTC

BECMG 2614/2616 36009KT

Becoming

Becoming Conditions expected by Wed, Jun 26, 2019 @ 16:00 UTC

Wind
  • 360° at 9 KTS
Conditions
No significant weather
Cloud Levels
  • No significant clouds